createdAt,value
2023-02-23T00:02:05.811Z,8.73
2023-02-23T00:04:34.121Z,11.52
2023-02-23T00:07:01.509Z,11.10
2023-02-23T00:09:35.317Z,10.57
2023-02-23T00:12:08.108Z,15.68
2023-02-23T00:14:37.815Z,8.25
2023-02-23T00:17:14.053Z,9.45
2023-02-23T00:19:43.471Z,12.60
2023-02-23T00:22:11.899Z,10.30
2023-02-23T00:24:40.501Z,11.75
2023-02-23T00:27:08.047Z,11.60
2023-02-23T00:29:39.634Z,10.10
2023-02-23T00:32:07.486Z,10.73
2023-02-23T00:34:36.696Z,9.45
2023-02-23T00:37:04.997Z,7.63
2023-02-23T00:39:32.184Z,9.43
2023-02-23T00:42:03.215Z,7.95
2023-02-23T00:44:31.259Z,7.75
2023-02-23T00:46:58.674Z,8.82
2023-02-23T00:49:26.110Z,9.60
2023-02-23T00:51:53.774Z,9.30
2023-02-23T00:54:22.268Z,10.27
2023-02-23T00:56:49.877Z,7.57
2023-02-23T00:59:17.108Z,8.35
2023-02-23T01:01:45.136Z,7.85
2023-02-23T01:04:13.385Z,8.35
2023-02-23T01:06:41.756Z,8.40
2023-02-23T01:09:13.463Z,7.38
2023-02-23T01:11:41.579Z,8.27
2023-02-23T01:14:10.291Z,7.00
2023-02-23T01:16:38.972Z,9.38
2023-02-23T01:19:06.877Z,8.05
2023-02-23T01:21:42.155Z,8.60
2023-02-23T01:24:09.935Z,7.65
2023-02-23T01:26:40.141Z,8.48
2023-02-23T01:29:15.677Z,7.88
2023-02-23T01:31:45.500Z,6.28
2023-02-23T01:34:15.934Z,8.82
2023-02-23T01:36:45.713Z,7.03
2023-02-23T01:39:15.826Z,6.95
2023-02-23T01:41:43.870Z,6.63
2023-02-23T01:44:14.007Z,8.85
2023-02-23T01:46:45.178Z,7.93
2023-02-23T01:49:23.085Z,10.35
2023-02-23T01:52:04.877Z,12.88
2023-02-23T01:54:36.335Z,11.27
2023-02-23T01:57:06.069Z,6.78
2023-02-23T01:59:43.249Z,6.82
2023-02-23T02:02:13.368Z,12.48
2023-02-23T02:04:46.435Z,16.88
2023-02-23T02:07:18.559Z,16.15
2023-02-23T02:10:09.410Z,9.25
2023-02-23T02:12:52.481Z,9.40
2023-02-23T02:15:22.543Z,10.98
2023-02-23T02:18:31.304Z,11.63
2023-02-23T02:21:11.384Z,9.93
2023-02-23T02:24:08.279Z,9.32
2023-02-23T02:26:58.500Z,10.73
2023-02-23T02:29:46.328Z,10.85
2023-02-23T02:32:39.578Z,7.40
2023-02-23T02:35:26.213Z,8.10
2023-02-23T02:38:31.594Z,11.38
2023-02-23T02:41:03.911Z,11.63
2023-02-23T02:44:03.005Z,12.80
2023-02-23T02:46:38.021Z,13.23
2023-02-23T02:49:12.092Z,12.55
2023-02-23T02:51:49.130Z,16.70
2023-02-23T02:54:37.011Z,12.35
2023-02-23T02:57:05.697Z,39.80
2023-02-23T03:00:05.819Z,16.90
2023-02-23T03:02:54.593Z,12.48
2023-02-23T03:05:46.295Z,14.65
2023-02-23T03:08:35.156Z,64.93
2023-02-23T03:11:32.942Z,22.73
2023-02-23T03:14:39.337Z,26.15
2023-02-23T03:17:25.264Z,13.55
2023-02-23T03:20:44.023Z,10.90
2023-02-23T03:23:38.221Z,24.30
2023-02-23T03:26:49.395Z,12.00
2023-02-23T03:29:50.791Z,13.68
2023-02-23T03:32:58.818Z,17.10
2023-02-23T03:35:48.434Z,17.23
2023-02-23T03:38:59.953Z,22.08
2023-02-23T03:41:47.453Z,22.23
2023-02-23T03:44:42.676Z,22.88
2023-02-23T03:47:32.755Z,16.38
2023-02-23T03:50:24.132Z,23.45
2023-02-23T03:53:14.195Z,10.93
2023-02-23T03:56:06.329Z,15.50
2023-02-23T03:59:03.382Z,11.80
2023-02-23T04:01:50.923Z,33.67
2023-02-23T04:04:38.737Z,13.80
2023-02-23T04:07:25.600Z,21.65
2023-02-23T04:10:12.600Z,17.48
2023-02-23T04:13:14.937Z,18.73
2023-02-23T04:15:44.831Z,10.65
2023-02-23T04:18:15.003Z,18.35
2023-02-23T04:20:42.261Z,11.55
2023-02-23T04:23:09.802Z,12.63
2023-02-23T04:25:36.853Z,15.68
2023-02-23T04:28:04.348Z,22.70
2023-02-23T04:30:31.426Z,15.65
2023-02-23T04:32:59.281Z,11.55
2023-02-23T04:35:28.747Z,22.23
2023-02-23T04:37:56.252Z,16.90
2023-02-23T04:40:24.433Z,14.25
2023-02-23T04:42:51.949Z,18.40
2023-02-23T04:45:19.243Z,15.57
2023-02-23T04:47:47.063Z,15.10
2023-02-23T04:50:14.563Z,10.65
2023-02-23T04:52:42.346Z,10.52
2023-02-23T04:55:18.626Z,24.80
2023-02-23T04:57:46.223Z,10.70
2023-02-23T05:00:14.147Z,10.60
2023-02-23T05:02:41.546Z,12.55
2023-02-23T05:05:09.749Z,15.77
2023-02-23T05:07:37.369Z,16.63
2023-02-23T05:10:06.341Z,9.80
2023-02-23T05:12:33.860Z,12.98
2023-02-23T05:15:00.907Z,16.70
2023-02-23T05:17:28.576Z,17.23
2023-02-23T05:19:56.235Z,22.65
2023-02-23T05:22:24.023Z,10.07
2023-02-23T05:24:51.662Z,19.60
2023-02-23T05:27:18.956Z,13.40
2023-02-23T05:29:45.975Z,21.52
2023-02-23T05:32:13.838Z,18.58
2023-02-23T05:34:41.096Z,12.95
2023-02-23T05:37:08.435Z,13.43
2023-02-23T05:39:35.518Z,10.60
2023-02-23T05:42:02.836Z,9.52
2023-02-23T05:44:29.853Z,12.73
2023-02-23T05:46:57.231Z,31.83
2023-02-23T05:49:24.538Z,7.00
2023-02-23T05:51:51.855Z,10.73
2023-02-23T05:54:19.241Z,12.23
2023-02-23T05:56:47.206Z,13.02
2023-02-23T05:59:14.303Z,19.58
2023-02-23T06:01:43.933Z,8.98
2023-02-23T06:04:10.915Z,15.02
2023-02-23T06:06:38.157Z,8.60
2023-02-23T06:09:05.546Z,13.98
2023-02-23T06:11:32.901Z,13.57
2023-02-23T06:14:00.375Z,30.38
2023-02-23T06:16:28.296Z,28.10
2023-02-23T06:18:55.988Z,15.82
2023-02-23T06:21:23.357Z,21.40
2023-02-23T06:23:50.611Z,20.08
2023-02-23T06:26:18.008Z,35.72
2023-02-23T06:28:45.008Z,17.00
2023-02-23T06:31:12.322Z,25.17
2023-02-23T06:33:39.356Z,12.98
2023-02-23T06:36:08.583Z,10.63
2023-02-23T06:38:35.959Z,12.50
2023-02-23T06:41:10.741Z,9.73
2023-02-23T06:43:37.870Z,7.05
2023-02-23T06:46:06.217Z,10.07
2023-02-23T06:48:33.305Z,8.20
2023-02-23T06:51:00.993Z,14.27
2023-02-23T06:53:28.212Z,12.13
2023-02-23T06:55:55.536Z,13.18
2023-02-23T06:58:22.550Z,7.30
2023-02-23T07:00:49.826Z,9.98
2023-02-23T07:03:16.960Z,11.73
2023-02-23T07:05:44.301Z,9.25
2023-02-23T07:08:11.367Z,9.98
2023-02-23T07:10:38.608Z,9.02
2023-02-23T07:13:05.696Z,10.25
2023-02-23T07:15:33.073Z,8.98
2023-02-23T07:18:00.117Z,9.38
2023-02-23T07:20:27.807Z,9.77
2023-02-23T07:22:54.982Z,9.68
2023-02-23T07:25:22.269Z,8.60
2023-02-23T07:27:49.452Z,7.75
2023-02-23T07:30:18.244Z,16.75
2023-02-23T07:32:45.306Z,64.07
2023-02-23T07:35:13.244Z,8.10
2023-02-23T07:37:40.461Z,10.70
2023-02-23T07:40:09.311Z,7.43
2023-02-23T07:42:36.459Z,6.97
2023-02-23T07:45:05.639Z,9.05
2023-02-23T07:47:33.149Z,14.38
2023-02-23T07:50:03.441Z,9.95
2023-02-23T07:52:30.512Z,8.70
2023-02-23T07:54:58.445Z,14.55
2023-02-23T07:57:25.569Z,6.30
2023-02-23T07:59:53.149Z,6.90
2023-02-23T08:02:20.301Z,7.00
2023-02-23T08:04:48.343Z,6.70
2023-02-23T08:07:16.293Z,6.15
2023-02-23T08:09:44.321Z,8.30
2023-02-23T08:12:11.364Z,9.85
2023-02-23T08:14:38.639Z,6.00
2023-02-23T08:17:05.841Z,8.18
2023-02-23T08:19:34.175Z,4.85
2023-02-23T08:22:01.480Z,6.05
2023-02-23T08:24:30.857Z,7.75
2023-02-23T08:26:58.967Z,9.98
2023-02-23T08:29:26.560Z,7.88
2023-02-23T08:31:53.982Z,9.45
2023-02-23T08:34:22.797Z,6.90
2023-02-23T08:36:51.418Z,8.88
2023-02-23T08:39:19.170Z,10.02
2023-02-23T08:41:46.293Z,10.90
2023-02-23T08:44:13.564Z,6.40
2023-02-23T08:46:40.534Z,10.18
2023-02-23T08:49:10.790Z,9.52
2023-02-23T08:51:38.417Z,8.38
2023-02-23T08:54:10.013Z,6.28
2023-02-23T08:56:36.948Z,7.25
2023-02-23T08:59:04.550Z,6.82
2023-02-23T09:01:31.627Z,7.95
2023-02-23T09:03:59.697Z,13.05
2023-02-23T09:06:27.856Z,7.78
2023-02-23T09:08:56.148Z,8.57
2023-02-23T09:11:24.965Z,9.27
2023-02-23T09:13:52.818Z,9.88
2023-02-23T09:16:19.899Z,13.93
2023-02-23T09:18:47.310Z,11.00
2023-02-23T09:21:21.288Z,14.68
2023-02-23T09:23:51.325Z,13.98
2023-02-23T09:26:19.979Z,18.80
2023-02-23T09:28:47.688Z,16.45
2023-02-23T09:31:18.275Z,8.00
2023-02-23T09:33:46.676Z,7.00
2023-02-23T09:36:16.737Z,8.00
2023-02-23T09:38:45.596Z,10.90
2023-02-23T09:41:45.926Z,21.83
2023-02-23T09:44:26.906Z,7.65
2023-02-23T09:47:11.850Z,6.95
2023-02-23T09:49:44.421Z,10.07
2023-02-23T09:52:19.205Z,6.78
2023-02-23T09:54:47.438Z,9.20
2023-02-23T09:57:33.661Z,7.25
2023-02-23T10:00:01.100Z,8.60
2023-02-23T10:02:39.916Z,21.08
2023-02-23T10:05:12.023Z,8.50
2023-02-23T10:08:07.498Z,9.60
2023-02-23T10:10:44.611Z,12.82
2023-02-23T10:13:12.306Z,6.90
2023-02-23T10:16:03.929Z,10.82
2023-02-23T10:18:56.469Z,10.63
2023-02-23T10:21:31.607Z,7.53
2023-02-23T10:24:04.633Z,13.27
2023-02-23T10:26:54.287Z,11.40
2023-02-23T10:29:29.298Z,9.40
2023-02-23T10:32:01.128Z,11.13
2023-02-23T10:34:29.954Z,10.43
2023-02-23T10:37:05.098Z,10.68
2023-02-23T10:39:33.752Z,12.32
2023-02-23T10:42:12.211Z,7.60
2023-02-23T10:44:39.664Z,8.43
2023-02-23T10:47:14.487Z,12.05
2023-02-23T10:49:50.228Z,9.43
2023-02-23T10:52:41.718Z,7.95
2023-02-23T10:55:38.005Z,12.52
2023-02-23T10:58:19.924Z,11.85
2023-02-23T11:00:55.550Z,13.00
2023-02-23T11:03:33.653Z,18.45
2023-02-23T11:06:01.148Z,17.63
2023-02-23T11:08:37.259Z,11.48
2023-02-23T11:11:17.126Z,9.48
2023-02-23T11:13:49.854Z,22.67
2023-02-23T11:16:25.427Z,16.65
2023-02-23T11:18:57.505Z,10.48
2023-02-23T11:21:34.107Z,13.82
2023-02-23T11:24:23.089Z,24.52
2023-02-23T11:26:54.149Z,10.70
2023-02-23T11:29:33.555Z,16.23
2023-02-23T11:32:23.636Z,15.98
2023-02-23T11:35:16.798Z,19.55
2023-02-23T11:37:44.020Z,17.42
2023-02-23T11:40:40.857Z,13.07
2023-02-23T11:43:14.825Z,15.05
2023-02-23T11:45:52.037Z,25.27
2023-02-23T11:49:01.411Z,10.90
2023-02-23T11:51:49.860Z,18.58
2023-02-23T11:54:28.564Z,52.50
2023-02-23T11:56:58.071Z,15.10
2023-02-23T11:59:40.376Z,14.00
2023-02-23T12:02:19.097Z,13.45
2023-02-23T12:04:47.851Z,15.07
2023-02-23T12:07:43.246Z,21.17
2023-02-23T12:10:24.057Z,17.55
2023-02-23T12:13:12.426Z,15.70
2023-02-23T12:16:11.568Z,9.60
2023-02-23T12:19:14.355Z,8.82
2023-02-23T12:21:57.834Z,16.38
2023-02-23T12:24:45.912Z,14.82
2023-02-23T12:27:22.565Z,14.85
2023-02-23T12:30:18.627Z,17.13
2023-02-23T12:32:53.734Z,20.05
2023-02-23T12:35:21.513Z,17.15
2023-02-23T12:38:27.703Z,12.85
2023-02-23T12:41:06.621Z,14.45
2023-02-23T12:43:49.511Z,8.23
2023-02-23T12:46:27.197Z,12.80
2023-02-23T12:49:05.242Z,13.27
2023-02-23T12:51:51.694Z,14.25
2023-02-23T12:54:19.543Z,11.05
2023-02-23T12:56:50.014Z,12.13
2023-02-23T12:59:54.810Z,13.25
2023-02-23T13:02:33.650Z,10.48
2023-02-23T13:05:29.496Z,13.60
2023-02-23T13:08:22.125Z,14.60
2023-02-23T13:10:49.851Z,12.98
2023-02-23T13:13:42.510Z,25.52
2023-02-23T13:16:27.978Z,19.85
2023-02-23T13:19:15.416Z,9.77
2023-02-23T13:21:53.875Z,11.30
2023-02-23T13:24:26.986Z,11.68
2023-02-23T13:27:10.288Z,9.10
2023-02-23T13:29:40.441Z,16.42
2023-02-23T13:32:14.813Z,10.13
2023-02-23T13:34:50.008Z,18.52
2023-02-23T13:37:21.259Z,17.30
2023-02-23T13:40:11.615Z,14.43
2023-02-23T13:43:18.156Z,16.17
2023-02-23T13:45:56.707Z,18.35
2023-02-23T13:49:02.402Z,19.02
2023-02-23T13:54:22.956Z,13.82
2023-02-23T13:56:55.389Z,22.25
2023-02-23T13:59:26.117Z,21.77
2023-02-23T14:01:55.143Z,27.02
2023-02-23T14:04:35.998Z,19.38
2023-02-23T14:07:09.454Z,12.27
2023-02-23T14:09:53.104Z,17.35
2023-02-23T14:12:43.187Z,25.25
2023-02-23T14:15:25.355Z,18.55
2023-02-23T14:18:04.390Z,16.27
2023-02-23T14:21:11.451Z,14.63
2023-02-23T14:24:04.177Z,11.90
2023-02-23T14:26:31.318Z,23.27
2023-02-23T14:29:26.695Z,24.40
2023-02-23T14:32:19.717Z,18.15
2023-02-23T14:34:59.384Z,15.75
2023-02-23T14:37:26.500Z,12.07
2023-02-23T14:40:00.694Z,13.50
2023-02-23T14:42:32.712Z,23.10
2023-02-23T14:45:07.813Z,15.45
2023-02-23T14:47:47.094Z,15.90
2023-02-23T14:50:25.714Z,14.85
2023-02-23T14:52:55.836Z,16.20
2023-02-23T14:55:29.512Z,16.90
2023-02-23T14:57:58.334Z,19.27
2023-02-23T15:00:28.926Z,13.60
2023-02-23T15:03:12.401Z,13.90
2023-02-23T15:05:46.251Z,19.92
2023-02-23T15:08:17.176Z,17.23
2023-02-23T15:10:50.648Z,21.25
2023-02-23T15:13:40.150Z,11.65
2023-02-23T15:16:18.651Z,19.73
2023-02-23T15:18:45.968Z,16.73
2023-02-23T15:21:17.785Z,18.98
2023-02-23T15:23:50.423Z,12.25
2023-02-23T15:26:32.028Z,16.55
2023-02-23T15:29:08.169Z,22.55
2023-02-23T15:31:40.940Z,14.63
2023-02-23T15:34:11.405Z,25.75
2023-02-23T15:36:41.267Z,14.82
2023-02-23T15:39:15.121Z,14.70
2023-02-23T15:41:46.271Z,14.73
2023-02-23T15:44:32.204Z,19.95
2023-02-23T15:47:10.721Z,14.93
2023-02-23T15:49:43.138Z,13.93
2023-02-23T15:52:17.681Z,13.93
2023-02-23T15:55:06.503Z,21.37
2023-02-23T15:57:47.242Z,19.50
2023-02-23T16:00:27.078Z,22.95
2023-02-23T16:02:56.979Z,15.35
2023-02-23T16:05:25.835Z,22.05
2023-02-23T16:08:06.545Z,23.05
2023-02-23T16:10:46.707Z,21.85
2023-02-23T16:13:19.896Z,32.90
2023-02-23T16:15:48.177Z,30.55
2023-02-23T16:18:17.214Z,20.25
2023-02-23T16:20:57.595Z,31.85
2023-02-23T16:23:37.104Z,21.58
2023-02-23T16:26:10.918Z,12.85
2023-02-23T16:28:45.154Z,13.68
2023-02-23T16:31:21.366Z,19.52
2023-02-23T16:34:00.139Z,16.13
2023-02-23T16:36:40.290Z,15.35
2023-02-23T16:39:12.277Z,17.00
2023-02-23T16:41:39.631Z,20.27
2023-02-23T16:44:13.912Z,15.38
2023-02-23T16:47:01.842Z,16.67
2023-02-23T16:49:32.651Z,16.55
2023-02-23T16:52:00.218Z,13.48
2023-02-23T16:54:28.055Z,16.90
2023-02-23T16:56:55.514Z,13.25
2023-02-23T16:59:25.524Z,12.70
2023-02-23T17:01:52.600Z,17.13
2023-02-23T17:04:22.352Z,18.27
2023-02-23T17:06:56.063Z,12.85
2023-02-23T17:09:24.365Z,13.60
2023-02-23T17:11:51.857Z,27.73
2023-02-23T17:14:25.445Z,16.63
2023-02-23T17:16:52.880Z,15.32
2023-02-23T17:19:20.831Z,18.05
2023-02-23T17:21:49.012Z,22.50
2023-02-23T17:24:16.886Z,17.45
2023-02-23T17:26:44.216Z,14.98
2023-02-23T17:29:12.115Z,15.25
2023-02-23T17:31:40.464Z,15.93
2023-02-23T17:34:09.119Z,16.58
2023-02-23T17:36:36.208Z,15.45
2023-02-23T17:39:03.872Z,16.88
2023-02-23T17:41:33.901Z,17.50
2023-02-23T17:44:05.652Z,20.45
2023-02-23T17:46:35.078Z,16.23
2023-02-23T17:49:03.388Z,16.35
2023-02-23T17:51:33.389Z,17.02
2023-02-23T17:54:00.705Z,16.65
2023-02-23T17:56:28.223Z,26.35
2023-02-23T17:58:55.469Z,21.85
2023-02-23T18:01:22.864Z,16.40
2023-02-23T18:03:51.004Z,17.38
2023-02-23T18:06:19.712Z,16.15
2023-02-23T18:08:47.289Z,18.58
2023-02-23T18:11:17.407Z,17.10
2023-02-23T18:13:51.284Z,15.05
2023-02-23T18:16:19.313Z,14.63
2023-02-23T18:18:48.729Z,9.90
2023-02-23T18:21:19.164Z,12.93
2023-02-23T18:23:47.622Z,10.10
2023-02-23T18:26:20.248Z,13.40
2023-02-23T18:28:47.903Z,13.18
2023-02-23T18:31:17.629Z,18.30
2023-02-23T18:33:46.361Z,18.65
2023-02-23T18:36:22.005Z,15.55
2023-02-23T18:38:50.124Z,21.58
2023-02-23T18:41:18.342Z,17.02
2023-02-23T18:43:47.753Z,16.45
2023-02-23T18:46:15.730Z,19.77
2023-02-23T18:48:45.109Z,17.90
2023-02-23T18:51:14.531Z,20.67
2023-02-23T18:53:42.877Z,18.42
2023-02-23T18:56:17.908Z,18.42
2023-02-23T18:58:46.497Z,44.75
2023-02-23T19:01:20.738Z,30.13
2023-02-23T19:03:50.315Z,27.48
2023-02-23T19:06:20.789Z,29.15
2023-02-23T19:08:59.504Z,23.85
2023-02-23T19:11:29.872Z,29.08
2023-02-23T19:14:00.007Z,28.85
2023-02-23T19:16:30.131Z,29.10
2023-02-23T19:18:58.756Z,21.45
2023-02-23T19:21:26.594Z,36.95
2023-02-23T19:23:57.794Z,25.35
2023-02-23T19:26:29.569Z,31.65
2023-02-23T19:28:58.337Z,26.88
2023-02-23T19:31:26.547Z,34.33
2023-02-23T19:33:56.306Z,26.95
2023-02-23T19:36:29.877Z,26.83
2023-02-23T19:39:10.398Z,32.05
2023-02-23T19:41:42.388Z,20.15
2023-02-23T19:44:11.119Z,18.35
2023-02-23T19:46:39.995Z,35.50
2023-02-23T19:49:07.552Z,24.33
2023-02-23T19:51:37.642Z,23.08
2023-02-23T19:54:06.494Z,38.67
2023-02-23T19:56:34.268Z,27.00
2023-02-23T19:59:02.374Z,31.55
2023-02-23T20:01:30.069Z,25.08
2023-02-23T20:04:02.416Z,32.97
2023-02-23T20:06:34.393Z,35.88
2023-02-23T20:11:33.337Z,27.33
2023-02-23T20:14:03.235Z,40.20
2023-02-23T20:16:30.750Z,31.60
2023-02-23T20:18:59.109Z,24.77
2023-02-23T20:21:30.771Z,20.77
2023-02-23T20:24:05.668Z,23.98
2023-02-23T20:26:37.308Z,32.67
2023-02-23T20:29:06.850Z,30.20
2023-02-23T20:31:35.933Z,25.13
2023-02-23T20:34:09.923Z,24.83
2023-02-23T20:36:37.286Z,29.15
2023-02-23T20:39:05.412Z,23.58
2023-02-23T20:41:33.066Z,24.98
2023-02-23T20:44:01.310Z,25.65
2023-02-23T20:46:30.609Z,24.80
2023-02-23T20:48:59.524Z,31.67
2023-02-23T20:51:27.169Z,27.17
2023-02-23T20:53:54.901Z,33.20
2023-02-23T20:56:22.738Z,40.47
2023-02-23T20:58:50.786Z,33.50
2023-02-23T21:01:23.184Z,25.95
2023-02-23T21:03:52.307Z,31.52
2023-02-23T21:06:20.791Z,28.30
2023-02-23T21:08:49.670Z,34.95
2023-02-23T21:11:18.242Z,29.50
2023-02-23T21:13:46.412Z,24.13
2023-02-23T21:16:15.430Z,32.28
2023-02-23T21:18:43.247Z,27.30
2023-02-23T21:21:10.978Z,22.75
2023-02-23T21:23:39.982Z,26.50
2023-02-23T21:26:07.589Z,24.38
2023-02-23T21:28:35.644Z,25.75
2023-02-23T21:31:02.753Z,27.80
2023-02-23T21:33:30.621Z,24.02
2023-02-23T21:36:00.603Z,27.55
2023-02-23T21:38:28.451Z,25.60
2023-02-23T21:40:55.466Z,26.10
2023-02-23T21:43:23.960Z,23.92
2023-02-23T21:45:51.028Z,23.33
2023-02-23T21:48:21.242Z,22.60
2023-02-23T21:50:49.646Z,26.05
2023-02-23T21:53:16.912Z,96.40
2023-02-23T21:55:44.114Z,59.70
2023-02-23T21:58:12.090Z,27.17
2023-02-23T22:00:39.420Z,27.00
2023-02-23T22:03:08.400Z,28.60
2023-02-23T22:05:35.665Z,26.92
2023-02-23T22:08:05.813Z,26.27
2023-02-23T22:10:33.320Z,27.67
2023-02-23T22:13:00.896Z,27.80
2023-02-23T22:15:28.264Z,27.58
2023-02-23T22:17:56.127Z,28.77
2023-02-23T22:20:26.043Z,25.42
2023-02-23T22:22:53.739Z,28.25
2023-02-23T22:25:20.966Z,29.05
2023-02-23T22:27:48.418Z,29.20
2023-02-23T22:30:15.767Z,29.92
2023-02-23T22:32:43.919Z,29.48
2023-02-23T22:35:11.228Z,27.88
2023-02-23T22:37:39.319Z,32.15
2023-02-23T22:40:12.813Z,31.60
2023-02-23T22:42:43.426Z,32.97
2023-02-23T22:45:11.504Z,31.63
2023-02-23T22:47:39.182Z,29.08
2023-02-23T22:50:07.068Z,29.38
2023-02-23T22:52:35.851Z,29.65
2023-02-23T22:55:03.969Z,29.20
2023-02-23T22:57:31.367Z,28.98
2023-02-23T23:00:00.695Z,30.88
2023-02-23T23:02:33.566Z,30.58
2023-02-23T23:05:01.910Z,34.83
2023-02-23T23:07:32.435Z,29.58
2023-02-23T23:10:03.831Z,30.50
2023-02-23T23:12:32.329Z,30.50
2023-02-23T23:15:02.447Z,32.60
2023-02-23T23:17:30.717Z,32.28
2023-02-23T23:20:00.221Z,30.33
2023-02-23T23:22:28.813Z,32.55
2023-02-23T23:24:59.353Z,29.90
2023-02-23T23:27:26.625Z,34.03
2023-02-23T23:29:53.706Z,34.83
2023-02-23T23:32:27.498Z,32.38
2023-02-23T23:34:57.305Z,36.10
2023-02-23T23:37:29.017Z,34.78
2023-02-23T23:39:59.296Z,39.00
2023-02-23T23:42:27.647Z,37.28
2023-02-23T23:44:56.995Z,35.28
2023-02-23T23:47:24.646Z,34.47
2023-02-23T23:49:53.622Z,38.72
2023-02-23T23:52:21.074Z,36.42
2023-02-23T23:54:48.323Z,55.28
2023-02-23T23:57:15.618Z,40.05
2023-02-23T23:59:45.987Z,40.45
